Time;durP1;ratioP1;P1;durP2;ratioP2;P2;SDS_P1;SDS_P2;PMS_P1;PMS_P2;Temp;Humidity;BMP_temperature;BMP_pressure;BME280_temperature;BME280_humidity;BME280_pressure;Samples;Min_cycle;Max_cycle;Signal;HPM_P1;HPM_P2
2023/01/02 00:01:46;;;;;;;4.05;2.40;;;12.60;81.50;;;;;;4949529;29;20498;-82
2023/01/02 00:04:12;;;;;;;2.53;2.05;;;12.60;81.50;;;;;;4956285;29;20035;-82
2023/01/02 00:06:38;;;;;;;4.03;2.38;;;12.70;81.40;;;;;;4956893;29;20051;-82
2023/01/02 00:09:06;;;;;;;3.47;2.17;;;12.60;81.40;;;;;;4956398;29;20045;-82
2023/01/02 00:11:32;;;;;;;3.78;2.35;;;12.60;81.30;;;;;;4956774;29;20031;-82
2023/01/02 00:13:58;;;;;;;3.45;2.38;;;12.60;81.30;;;;;;4947952;29;20091;-82
2023/01/02 00:16:24;;;;;;;3.58;2.30;;;12.60;81.40;;;;;;4937990;29;20095;-82
2023/01/02 00:18:49;;;;;;;2.55;1.83;;;12.60;81.30;;;;;;4937759;29;20028;-82
2023/01/02 00:21:15;;;;;;;2.90;2.40;;;12.60;81.30;;;;;;4936994;29;20724;-82
2023/01/02 00:23:42;;;;;;;3.10;2.28;;;12.60;81.40;;;;;;4945607;29;20034;-82
2023/01/02 00:26:07;;;;;;;4.88;2.25;;;12.60;81.40;;;;;;4956229;28;20034;-82
2023/01/02 00:28:35;;;;;;;3.40;2.15;;;12.60;81.30;;;;;;4955372;29;20031;-82
2023/01/02 00:31:12;;;;;;;4.30;1.90;;;12.60;81.50;;;;;;4965325;28;20038;-82
2023/01/02 00:33:38;;;;;;;2.92;2.10;;;12.60;81.30;;;;;;4960235;28;20035;-82
2023/01/02 00:36:09;;;;;;;4.93;2.08;;;12.60;81.20;;;;;;4956498;29;20042;-82
2023/01/02 00:38:35;;;;;;;2.63;1.90;;;12.60;81.30;;;;;;4956002;28;20486;-82
2023/01/02 00:41:01;;;;;;;2.85;2.33;;;12.50;81.30;;;;;;4944608;29;20091;-82
2023/01/02 00:43:27;;;;;;;3.58;2.20;;;12.50;81.30;;;;;;4941325;29;20035;-82
2023/01/02 00:45:53;;;;;;;2.60;1.90;;;12.50;81.40;;;;;;4941178;29;20366;-81
2023/01/02 00:48:19;;;;;;;3.60;1.70;;;12.50;81.20;;;;;;4924837;29;20063;-82
2023/01/02 00:50:45;;;;;;;2.40;2.00;;;12.50;81.40;;;;;;4941265;29;20076;-82
2023/01/02 00:53:10;;;;;;;2.05;1.23;;;12.40;81.20;;;;;;4953108;29;20115;-82
2023/01/02 00:55:36;;;;;;;1.63;1.20;;;12.40;81.20;;;;;;4960168;29;20034;-82
2023/01/02 00:58:02;;;;;;;1.52;1.27;;;12.40;81.10;;;;;;4958011;29;20031;-82
2023/01/02 01:00:27;;;;;;;1.83;1.25;;;12.50;81.00;;;;;;4952699;29;20050;-82
2023/01/02 01:02:57;;;;;;;1.63;1.13;;;12.40;81.00;;;;;;4958076;29;20478;-82
2023/01/02 01:05:24;;;;;;;3.53;1.38;;;12.40;80.90;;;;;;4959974;29;20019;-82
2023/01/02 01:07:49;;;;;;;4.63;1.33;;;12.40;80.90;;;;;;4959621;29;20042;-82
2023/01/02 01:10:15;;;;;;;1.27;1.02;;;12.40;81.10;;;;;;4959858;29;20079;-82
2023/01/02 01:12:41;;;;;;;1.65;1.10;;;12.30;81.00;;;;;;4960022;29;20183;-82
2023/01/02 01:15:07;;;;;;;2.10;1.23;;;12.30;81.00;;;;;;4948886;29;20032;-82
2023/01/02 01:17:32;;;;;;;1.70;1.00;;;12.40;81.00;;;;;;4940576;29;20031;-82
2023/01/02 01:19:58;;;;;;;2.42;1.50;;;12.30;81.00;;;;;;4940646;29;20031;-82
2023/01/02 01:22:24;;;;;;;1.40;1.20;;;12.30;81.10;;;;;;4940796;29;20020;-82
2023/01/02 01:24:49;;;;;;;2.38;1.73;;;12.30;81.10;;;;;;4946928;29;20035;-82
2023/01/02 01:27:15;;;;;;;2.03;1.30;;;12.30;81.10;;;;;;4940514;29;20395;-82
2023/01/02 01:29:40;;;;;;;2.00;1.20;;;12.30;81.20;;;;;;4955219;29;20130;-82
2023/01/02 01:32:07;;;;;;;1.90;1.20;;;12.30;81.30;;;;;;4958999;29;20114;-82
2023/01/02 01:34:32;;;;;;;1.92;1.10;;;12.20;81.20;;;;;;4959559;29;20034;-82
2023/01/02 01:36:58;;;;;;;2.58;1.13;;;12.20;81.20;;;;;;4958928;29;20023;-82
2023/01/02 01:39:23;;;;;;;2.13;1.40;;;12.20;81.00;;;;;;4959148;29;20049;-82
2023/01/02 01:41:49;;;;;;;3.67;1.20;;;12.20;81.20;;;;;;4959273;29;20482;-82
2023/01/02 01:45:00;;;;;;;1.83;1.50;;;12.20;80.90;;;;;;4959308;29;20035;-81
2023/01/02 01:47:51;;;;;;;1.80;1.27;;;12.20;81.20;;;;;;4938835;29;20044;-82
2023/01/02 01:50:19;;;;;;;2.28;1.30;;;12.20;81.10;;;;;;4939550;29;20054;-82
2023/01/02 01:52:50;;;;;;;3.25;1.40;;;12.20;81.10;;;;;;4938712;29;20409;-82
2023/01/02 01:55:20;;;;;;;1.52;1.23;;;12.20;81.00;;;;;;4939915;29;20502;-82
2023/01/02 01:57:52;;;;;;;3.17;1.40;;;12.20;80.60;;;;;;4939887;29;20043;-82
2023/01/02 02:00:18;;;;;;;1.98;1.45;;;12.20;81.10;;;;;;4956776;29;20027;-83
2023/01/02 02:02:48;;;;;;;1.73;1.30;;;12.20;81.20;;;;;;4958382;29;20051;-82
2023/01/02 02:05:18;;;;;;;2.58;1.20;;;12.20;81.10;;;;;;4958893;29;20066;-82
2023/01/02 02:07:52;;;;;;;2.22;1.25;;;12.20;80.90;;;;;;4958391;29;20046;-82
2023/01/02 02:10:18;;;;;;;2.15;1.20;;;12.20;80.60;;;;;;4957834;29;20122;-82
2023/01/02 02:12:43;;;;;;;1.98;1.40;;;12.20;81.10;;;;;;4958725;29;20596;-82
2023/01/02 02:15:12;;;;;;;1.98;1.50;;;12.20;80.90;;;;;;4958301;29;20046;-82
2023/01/02 02:17:48;;;;;;;2.25;1.30;;;12.20;81.00;;;;;;4958626;29;20035;-82
2023/01/02 02:20:20;;;;;;;1.75;1.20;;;12.20;81.00;;;;;;4952238;29;20028;-82
2023/01/02 02:23:32;;;;;;;2.45;1.27;;;12.20;80.70;;;;;;4938903;29;20032;-82
2023/01/02 02:26:06;;;;;;;1.95;1.58;;;12.20;80.80;;;;;;4933529;29;20028;-82
2023/01/02 02:28:43;;;;;;;2.15;1.30;;;12.10;81.00;;;;;;4974317;28;20110;-82
2023/01/02 02:31:50;;;;;;;1.83;1.25;;;12.10;80.90;;;;;;4967353;28;20023;-82
2023/01/02 02:34:32;;;;;;;1.83;1.38;;;12.20;80.90;;;;;;4925897;29;20040;-82
2023/01/02 02:37:13;;;;;;;2.35;1.30;;;12.20;81.00;;;;;;4958358;29;20035;-82
2023/01/02 02:40:03;;;;;;;2.10;1.50;;;12.20;80.80;;;;;;4957762;29;20167;-82
2023/01/02 02:43:03;;;;;;;2.47;1.45;;;12.20;80.80;;;;;;4958347;29;20023;-82
2023/01/02 02:45:35;;;;;;;2.17;1.67;;;12.20;80.70;;;;;;4938678;29;20036;-82
2023/01/02 02:48:10;;;;;;;1.92;1.38;;;12.10;80.70;;;;;;4938814;29;20035;-82
2023/01/02 02:51:00;;;;;;;2.72;1.35;;;12.00;81.10;;;;;;4939174;29;20082;-82
2023/01/02 02:53:34;;;;;;;1.73;1.33;;;12.00;81.10;;;;;;4937516;29;20063;-83
2023/01/02 02:56:04;;;;;;;2.42;1.48;;;11.90;81.50;;;;;;4939414;29;20171;-82
2023/01/02 02:58:31;;;;;;;1.92;1.10;;;11.90;81.50;;;;;;4958160;29;20114;-82
2023/01/02 03:01:12;;;;;;;1.98;1.23;;;11.80;81.50;;;;;;4957323;29;20138;-83
2023/01/02 03:03:37;;;;;;;2.17;1.52;;;11.80;82.00;;;;;;4956959;28;20034;-82
2023/01/02 03:06:50;;;;;;;3.35;1.60;;;11.80;82.40;;;;;;4939968;29;20409;-82
2023/01/02 03:09:18;;;;;;;2.50;1.33;;;11.80;82.00;;;;;;4926566;29;20159;-82
2023/01/02 03:11:59;;;;;;;2.40;1.50;;;11.70;82.70;;;;;;4951518;29;20054;-82
2023/01/02 03:14:44;;;;;;;3.70;1.40;;;11.80;82.50;;;;;;4957693;29;20027;-82
2023/01/02 03:17:37;;;;;;;1.80;1.45;;;11.70;82.60;;;;;;4957527;29;20035;-83
2023/01/02 03:20:11;;;;;;;1.90;1.10;;;11.80;82.40;;;;;;4957177;29;20564;-83
2023/01/02 03:22:42;;;;;;;1.95;1.40;;;11.80;82.30;;;;;;4957604;29;20055;-82
2023/01/02 03:25:10;;;;;;;2.30;1.23;;;11.80;82.00;;;;;;4937840;29;20026;-83
2023/01/02 03:27:38;;;;;;;3.25;1.48;;;11.80;81.90;;;;;;4956297;29;20035;-83
2023/01/02 03:30:13;;;;;;;2.13;1.48;;;11.80;81.90;;;;;;4957508;29;20027;-83
2023/01/02 03:32:47;;;;;;;1.95;1.50;;;11.80;81.80;;;;;;4957620;29;20457;-83
2023/01/02 03:35:18;;;;;;;2.25;1.45;;;11.80;81.80;;;;;;4957084;29;20482;-83
2023/01/02 03:37:51;;;;;;;1.80;1.30;;;11.80;82.00;;;;;;4955895;29;20063;-82
2023/01/02 03:40:27;;;;;;;3.22;1.75;;;11.80;81.90;;;;;;4957532;29;20051;-82
2023/01/02 03:43:00;;;;;;;1.38;1.00;;;11.80;82.00;;;;;;4957242;29;20054;-83
2023/01/02 03:45:34;;;;;;;2.15;1.20;;;11.70;81.90;;;;;;4956342;29;20031;-83
2023/01/02 03:48:32;;;;;;;2.00;1.20;;;11.70;82.10;;;;;;4957216;29;20035;-83
2023/01/02 03:51:01;;;;;;;2.15;1.20;;;11.70;82.10;;;;;;4956209;29;20049;-82
2023/01/02 03:53:27;;;;;;;4.30;1.30;;;11.70;82.10;;;;;;4957179;29;20027;-82
2023/01/02 03:56:20;;;;;;;1.77;1.48;;;11.50;82.00;;;;;;4957106;29;20027;-83
2023/01/02 03:59:07;;;;;;;2.67;1.30;;;11.60;82.50;;;;;;4957385;29;20031;-83
2023/01/02 04:01:46;;;;;;;4.70;1.30;;;11.60;82.20;;;;;;4945598;29;20043;-82
2023/01/02 04:04:28;;;;;;;1.83;1.20;;;11.60;82.10;;;;;;4937990;29;20032;-82
2023/01/02 04:07:00;;;;;;;1.77;1.20;;;11.70;82.10;;;;;;4955520;29;20043;-83
2023/01/02 04:09:29;;;;;;;4.70;1.33;;;11.70;82.00;;;;;;4955623;29;20176;-82
2023/01/02 04:12:10;;;;;;;4.70;1.50;;;11.70;81.80;;;;;;4956893;29;20106;-82
2023/01/02 04:15:02;;;;;;;3.45;1.73;;;11.70;81.80;;;;;;4958224;28;20043;-82
2023/01/02 04:17:30;;;;;;;1.83;1.40;;;11.70;81.70;;;;;;4960679;29;20024;-83
2023/01/02 04:20:02;;;;;;;4.78;1.48;;;11.70;81.50;;;;;;4960370;29;20027;-82
2023/01/02 04:22:32;;;;;;;3.80;1.42;;;11.70;81.60;;;;;;4960433;28;20027;-83
2023/01/02 04:25:17;;;;;;;1.65;1.23;;;11.70;81.70;;;;;;4960708;29;20110;-82
2023/01/02 04:27:54;;;;;;;2.67;1.55;;;11.70;81.80;;;;;;4960887;28;20038;-82
2023/01/02 04:30:20;;;;;;;1.70;1.40;;;11.60;81.80;;;;;;4960289;28;20043;-83
2023/01/02 04:32:47;;;;;;;1.80;1.45;;;11.60;81.90;;;;;;4960618;29;20034;-82
2023/01/02 04:35:22;;;;;;;2.72;1.52;;;11.60;81.80;;;;;;4959010;29;20067;-83
2023/01/02 04:37:47;;;;;;;2.70;1.45;;;11.60;81.90;;;;;;4959922;29;20066;-82
2023/01/02 04:40:26;;;;;;;3.58;1.38;;;11.60;82.00;;;;;;4960014;29;20035;-82
2023/01/02 04:42:52;;;;;;;2.60;1.33;;;11.60;82.00;;;;;;4960482;29;20074;-82
2023/01/02 04:45:18;;;;;;;2.03;1.77;;;11.70;82.00;;;;;;4960538;29;20049;-82
2023/01/02 04:47:45;;;;;;;1.23;0.90;;;11.70;81.80;;;;;;4960087;29;20114;-82
2023/01/02 04:50:11;;;;;;;2.22;1.58;;;11.60;81.90;;;;;;4959911;29;20078;-83
2023/01/02 04:52:37;;;;;;;2.47;1.30;;;11.70;81.80;;;;;;4960365;29;20027;-82
2023/01/02 04:55:03;;;;;;;2.50;1.30;;;11.60;82.00;;;;;;4959719;29;20039;-82
2023/01/02 04:57:30;;;;;;;2.90;2.05;;;11.60;82.00;;;;;;4958457;29;20063;-82
2023/01/02 04:59:55;;;;;;;2.78;1.63;;;11.60;82.10;;;;;;4960186;29;20085;-82
2023/01/02 05:02:21;;;;;;;3.55;1.80;;;11.60;82.20;;;;;;4958088;29;20099;-83
2023/01/02 05:04:46;;;;;;;5.22;1.35;;;11.60;82.20;;;;;;4960244;29;20023;-83
2023/01/02 05:07:12;;;;;;;2.25;1.30;;;11.50;82.30;;;;;;4960185;29;20023;-82
2023/01/02 05:09:38;;;;;;;2.67;1.63;;;11.50;82.40;;;;;;4959409;29;20039;-83
2023/01/02 05:12:03;;;;;;;4.18;2.45;;;11.50;82.60;;;;;;4959908;29;20378;-82
2023/01/02 05:14:30;;;;;;;3.22;1.98;;;11.50;82.40;;;;;;4959584;29;20115;-83
2023/01/02 05:16:55;;;;;;;3.90;1.70;;;11.50;82.50;;;;;;4959308;29;20536;-83
2023/01/02 05:19:21;;;;;;;3.85;1.63;;;11.50;82.50;;;;;;4959489;29;20031;-83
2023/01/02 05:24:31;;;;;;;3.65;1.70;;;11.50;82.40;;;;;;4959232;29;20034;-83
2023/01/02 05:26:57;;;;;;;2.47;1.30;;;11.50;82.40;;;;;;4941399;29;20035;-83
2023/01/02 05:29:22;;;;;;;3.10;2.03;;;11.50;82.40;;;;;;4959253;29;20039;-83
2023/01/02 05:31:48;;;;;;;4.20;1.90;;;11.50;82.30;;;;;;4959504;28;20035;-83
2023/01/02 05:34:14;;;;;;;4.03;1.73;;;11.50;82.30;;;;;;4970172;28;20054;-83
2023/01/02 05:36:41;;;;;;;3.28;1.77;;;11.50;82.30;;;;;;4946656;29;20107;-82
2023/01/02 05:39:11;;;;;;;2.85;1.80;;;11.50;82.30;;;;;;4940295;29;20032;-82
2023/01/02 05:41:40;;;;;;;3.33;1.98;;;11.50;82.10;;;;;;4940110;29;20027;-83
2023/01/02 05:44:07;;;;;;;3.65;1.83;;;11.50;82.30;;;;;;4947181;29;20409;-83
2023/01/02 05:46:34;;;;;;;4.22;1.85;;;11.50;82.30;;;;;;4959451;29;20062;-82
2023/01/02 05:49:02;;;;;;;3.08;1.50;;;11.40;82.20;;;;;;4948957;29;20035;-82
2023/01/02 05:51:28;;;;;;;2.65;1.55;;;11.50;82.30;;;;;;4940380;29;20107;-91
2023/01/02 05:53:54;;;;;;;3.80;1.67;;;11.50;82.30;;;;;;4939996;29;20071;-81
2023/01/02 05:56:20;;;;;;;2.10;1.40;;;11.50;82.30;;;;;;4939760;29;20055;-79
2023/01/02 05:58:47;;;;;;;3.35;1.40;;;11.40;82.40;;;;;;4949237;29;20031;-84
2023/01/02 06:01:25;;;;;;;3.20;1.30;;;11.50;82.30;;;;;;4958510;29;20067;-86
2023/01/02 06:03:58;;;;;;;3.15;1.85;;;11.40;82.30;;;;;;4968400;28;20033;-84
2023/01/02 06:06:29;;;;;;;3.95;1.60;;;11.40;82.40;;;;;;4959369;28;20505;-79
2023/01/02 06:08:56;;;;;;;2.05;1.20;;;11.40;82.50;;;;;;4968683;28;20039;-78
2023/01/02 06:11:22;;;;;;;2.53;1.25;;;11.40;82.50;;;;;;4959291;29;20026;-79
2023/01/02 06:13:47;;;;;;;1.58;1.13;;;11.40;82.60;;;;;;4941514;29;20494;-78
2023/01/02 06:16:13;;;;;;;2.50;1.48;;;11.40;82.60;;;;;;4958728;29;20391;-78
2023/01/02 06:18:53;;;;;;;4.40;1.92;;;11.50;82.50;;;;;;4959173;29;20108;-78
2023/01/02 06:21:20;;;;;;;6.35;2.15;;;11.50;82.50;;;;;;4940211;29;20024;-78
2023/01/02 06:23:46;;;;;;;2.58;1.50;;;11.50;82.30;;;;;;4953149;29;20031;-78
2023/01/02 06:26:17;;;;;;;5.40;1.90;;;11.50;82.20;;;;;;4945782;29;20112;-79
2023/01/02 06:28:44;;;;;;;2.15;1.35;;;11.50;82.30;;;;;;4939794;29;20030;-78
2023/01/02 06:31:12;;;;;;;2.42;1.40;;;11.50;82.30;;;;;;4947979;29;20024;-79
2023/01/02 06:33:38;;;;;;;3.35;1.73;;;11.50;82.20;;;;;;4959202;29;20027;-78
2023/01/02 06:36:11;;;;;;;2.92;1.90;;;11.40;82.20;;;;;;4942765;28;20034;-78
2023/01/02 06:38:37;;;;;;;2.42;1.52;;;11.40;82.20;;;;;;4960698;28;20030;-79
2023/01/02 06:41:04;;;;;;;3.42;2.10;;;11.50;82.30;;;;;;4960873;28;20027;-78
2023/01/02 06:43:30;;;;;;;4.13;1.60;;;11.40;82.30;;;;;;4958384;28;21836;-78
2023/01/02 06:46:00;;;;;;;2.47;1.52;;;11.40;82.20;;;;;;4941590;29;20083;-79
2023/01/02 06:48:27;;;;;;;3.08;2.05;;;11.30;82.30;;;;;;4948374;29;20042;-79
2023/01/02 06:50:52;;;;;;;2.58;1.73;;;11.30;82.30;;;;;;4943942;29;20042;-78
2023/01/02 06:53:21;;;;;;;3.42;1.42;;;11.30;82.30;;;;;;4921383;29;20087;-77
2023/01/02 06:55:54;;;;;;;3.35;1.63;;;11.30;82.30;;;;;;4938434;29;20023;-78
2023/01/02 06:58:20;;;;;;;3.33;1.67;;;11.30;82.10;;;;;;4946519;29;20039;-77
2023/01/02 07:00:47;;;;;;;4.28;2.15;;;11.30;82.20;;;;;;4954139;29;20494;-76
2023/01/02 07:03:13;;;;;;;2.42;1.80;;;11.30;82.20;;;;;;4956821;29;20024;-76
2023/01/02 07:05:39;;;;;;;5.65;1.77;;;11.20;82.20;;;;;;4955793;29;20131;-77
2023/01/02 07:08:05;;;;;;;3.30;1.70;;;11.20;82.30;;;;;;4953736;29;20077;-77
2023/01/02 07:10:30;;;;;;;4.63;1.80;;;11.20;82.20;;;;;;4955786;29;20023;-77
2023/01/02 07:12:56;;;;;;;4.38;2.17;;;11.20;82.20;;;;;;4956710;29;20073;-77
2023/01/02 07:15:22;;;;;;;2.80;1.90;;;11.20;82.20;;;;;;4955637;29;20402;-77
2023/01/02 07:17:48;;;;;;;3.50;2.20;;;11.20;82.10;;;;;;4939047;29;20031;-78
2023/01/02 07:20:13;;;;;;;3.00;1.92;;;11.20;82.10;;;;;;4938373;29;20036;-77
2023/01/02 07:22:39;;;;;;;6.05;2.03;;;11.20;82.00;;;;;;4955496;28;20015;-77
2023/01/02 07:25:05;;;;;;;5.38;3.03;;;11.10;82.10;;;;;;4957363;28;20074;-77
2023/01/02 07:27:34;;;;;;;4.85;3.50;;;11.00;82.00;;;;;;4956837;28;20031;-77
2023/01/02 07:30:00;;;;;;;7.55;4.35;;;11.00;82.10;;;;;;4940044;28;20501;-77
2023/01/02 07:32:26;;;;;;;9.18;5.47;;;10.90;82.30;;;;;;4965835;28;20022;-77
2023/01/02 07:34:51;;;;;;;10.00;5.40;;;10.90;82.10;;;;;;4965487;28;20134;-78
2023/01/02 07:37:17;;;;;;;8.40;5.40;;;10.90;82.20;;;;;;4966945;28;20130;-77
2023/01/02 07:39:43;;;;;;;9.25;5.07;;;10.80;82.20;;;;;;4965137;28;20460;-77
2023/01/02 07:42:08;;;;;;;7.63;4.40;;;10.80;82.30;;;;;;4949818;28;20027;-77
2023/01/02 07:44:34;;;;;;;4.68;2.97;;;10.80;82.50;;;;;;4964127;28;20030;-76
2023/01/02 07:47:00;;;;;;;3.67;1.98;;;10.80;82.40;;;;;;4953474;28;20094;-76
2023/01/02 07:49:26;;;;;;;5.53;2.42;;;10.80;82.50;;;;;;4955533;28;20102;-76
2023/01/02 07:51:52;;;;;;;6.05;1.80;;;10.80;82.40;;;;;;4937462;29;20027;-77
2023/01/02 07:54:17;;;;;;;2.13;1.38;;;10.80;82.40;;;;;;4955681;29;20406;-77
2023/01/02 07:56:43;;;;;;;3.63;1.55;;;10.80;82.50;;;;;;4955850;29;20038;-77
2023/01/02 07:59:09;;;;;;;4.45;1.77;;;10.80;82.40;;;;;;4955552;29;20038;-77
2023/01/02 08:01:34;;;;;;;3.60;1.70;;;10.80;82.40;;;;;;4944570;29;20083;-77
2023/01/02 08:04:00;;;;;;;5.30;1.50;;;10.80;82.40;;;;;;4948562;29;20036;-77
2023/01/02 08:06:26;;;;;;;3.25;1.73;;;10.80;82.30;;;;;;4947685;29;20027;-77
2023/01/02 08:08:51;;;;;;;2.72;1.83;;;10.90;82.40;;;;;;4942552;29;20506;-76
2023/01/02 08:11:19;;;;;;;10.95;1.88;;;10.80;82.30;;;;;;4931660;29;20507;-77
2023/01/02 08:13:45;;;;;;;1.80;1.30;;;10.80;82.30;;;;;;4935421;29;20038;-77
2023/01/02 08:16:15;;;;;;;6.63;1.52;;;10.80;82.10;;;;;;4932983;29;20027;-77
2023/01/02 08:18:42;;;;;;;7.70;2.33;;;10.80;82.10;;;;;;4950912;29;20537;-77
2023/01/02 08:21:08;;;;;;;3.65;1.58;;;10.80;82.20;;;;;;4935650;29;20038;-83
2023/01/02 08:23:33;;;;;;;5.57;1.60;;;10.80;82.10;;;;;;4935935;29;20491;-78
2023/01/02 08:26:01;;;;;;;4.93;1.58;;;10.80;82.10;;;;;;4936011;29;20539;-80
2023/01/02 08:28:27;;;;;;;3.33;1.42;;;10.80;82.10;;;;;;4918853;29;20619;-80
2023/01/02 08:30:53;;;;;;;3.28;1.58;;;10.80;82.00;;;;;;4934298;29;20082;-82
2023/01/02 08:33:19;;;;;;;1.88;1.27;;;10.80;81.90;;;;;;4939675;29;20094;-81
2023/01/02 08:35:44;;;;;;;3.10;1.60;;;10.80;81.90;;;;;;4939398;29;20087;-82
2023/01/02 08:38:10;;;;;;;2.38;1.70;;;10.80;81.80;;;;;;4937716;29;20039;-83
2023/01/02 08:40:36;;;;;;;4.28;1.98;;;10.70;81.80;;;;;;4937947;29;20047;-82
2023/01/02 08:43:02;;;;;;;3.45;1.70;;;10.80;81.80;;;;;;4939410;29;20048;-81
2023/01/02 08:45:27;;;;;;;4.40;2.08;;;10.80;81.80;;;;;;4935494;29;20431;-78
2023/01/02 08:47:53;;;;;;;6.05;2.40;;;10.80;81.70;;;;;;4933965;29;20028;-78
2023/01/02 08:50:22;;;;;;;7.50;2.40;;;10.80;81.80;;;;;;4934310;29;20034;-78
2023/01/02 08:52:47;;;;;;;3.67;1.73;;;10.80;81.80;;;;;;4936816;29;20111;-78
2023/01/02 08:55:13;;;;;;;6.40;2.55;;;10.80;81.80;;;;;;4951969;29;20070;-78
2023/01/02 08:57:39;;;;;;;4.00;2.92;;;10.80;81.90;;;;;;4937119;29;20028;-78
2023/01/02 09:00:05;;;;;;;8.95;2.95;;;10.80;81.90;;;;;;4952748;28;20482;-78
2023/01/02 09:02:31;;;;;;;8.25;3.13;;;10.70;82.00;;;;;;4938248;29;20406;-78
2023/01/02 09:04:57;;;;;;;6.65;2.70;;;10.80;82.20;;;;;;4953147;29;20064;-78
2023/01/02 09:07:23;;;;;;;4.65;2.63;;;10.80;82.20;;;;;;4952595;29;20024;-77
2023/01/02 09:09:49;;;;;;;7.90;2.92;;;10.80;82.30;;;;;;4950947;29;20479;-78
2023/01/02 09:12:15;;;;;;;5.40;2.90;;;10.90;82.20;;;;;;4937780;29;20083;-78
2023/01/02 09:14:41;;;;;;;6.90;2.58;;;10.90;82.20;;;;;;4939884;29;20023;-78
2023/01/02 09:17:07;;;;;;;9.50;2.50;;;10.90;82.20;;;;;;4940029;29;20024;-79
2023/01/02 09:19:33;;;;;;;4.40;2.50;;;10.90;82.30;;;;;;4939913;29;20042;-78
2023/01/02 09:22:00;;;;;;;2.97;2.05;;;11.00;82.30;;;;;;4951813;29;20034;-78
2023/01/02 09:24:27;;;;;;;6.97;2.53;;;11.00;82.30;;;;;;4936174;29;20026;-78
2023/01/02 09:26:53;;;;;;;5.05;2.20;;;11.00;82.40;;;;;;4951637;29;20056;-78
2023/01/02 09:29:19;;;;;;;4.60;2.00;;;11.10;82.30;;;;;;4925185;29;20043;-78
2023/01/02 09:31:45;;;;;;;5.57;1.92;;;11.10;82.40;;;;;;4950324;29;20079;-78
2023/01/02 09:34:11;;;;;;;5.88;2.17;;;11.20;82.40;;;;;;4935087;29;20032;-78
2023/01/02 09:36:37;;;;;;;3.50;1.80;;;11.20;82.40;;;;;;4934512;29;20402;-78
2023/01/02 09:39:03;;;;;;;1.58;1.30;;;11.20;82.40;;;;;;4940214;29;20102;-78
2023/01/02 09:41:38;;;;;;;2.80;1.30;;;11.20;82.20;;;;;;4954185;29;20832;-78
2023/01/02 09:44:22;;;;;;;3.35;1.30;;;11.20;82.60;;;;;;4939407;29;20494;-78
2023/01/02 09:46:59;;;;;;;6.43;1.52;;;11.30;82.40;;;;;;4940046;29;20032;-78
2023/01/02 09:49:29;;;;;;;6.72;1.88;;;11.40;82.40;;;;;;4954244;29;20464;-86
2023/01/02 09:51:55;;;;;;;2.83;1.55;;;11.40;82.20;;;;;;4944938;29;20027;-81
2023/01/02 09:54:30;;;;;;;6.18;2.03;;;11.40;82.30;;;;;;4940194;29;20094;-82
2023/01/02 09:57:14;;;;;;;5.20;2.03;;;11.50;81.90;;;;;;4939976;29;20111;-79
2023/01/02 09:59:55;;;;;;;4.95;2.58;;;11.50;81.80;;;;;;4935884;29;20032;-79
2023/01/02 10:02:39;;;;;;;4.85;1.80;;;11.50;81.70;;;;;;4949525;29;20111;-80
2023/01/02 10:05:43;;;;;;;4.03;1.52;;;11.60;81.50;;;;;;4945625;29;20043;-80
2023/01/02 10:08:27;;;;;;;5.32;1.77;;;11.60;81.50;;;;;;4957697;29;20039;-80
2023/01/02 10:11:23;;;;;;;3.42;1.55;;;11.70;81.00;;;;;;4955686;28;20828;-80
2023/01/02 10:13:55;;;;;;;10.38;2.10;;;11.70;81.20;;;;;;4955362;29;20035;-80
2023/01/02 10:16:27;;;;;;;3.58;2.13;;;11.70;81.20;;;;;;4952425;29;20501;-80
2023/01/02 10:18:54;;;;;;;3.38;1.73;;;11.70;81.20;;;;;;4956249;29;20027;-81
2023/01/02 10:21:27;;;;;;;6.53;1.58;;;11.80;81.40;;;;;;4957856;29;20034;-81
2023/01/02 10:24:18;;;;;;;6.45;1.70;;;11.80;81.00;;;;;;4949451;29;20031;-80
2023/01/02 10:26:52;;;;;;;4.45;1.50;;;11.80;80.70;;;;;;4953761;29;20035;-82
2023/01/02 10:29:24;;;;;;;5.07;1.25;;;11.80;80.50;;;;;;4955933;29;20031;-81
2023/01/02 10:31:59;;;;;;;3.47;1.10;;;11.90;80.80;;;;;;4939001;29;20035;-81
2023/01/02 10:34:36;;;;;;;6.47;1.63;;;12.00;80.70;;;;;;4951225;29;20035;-81
2023/01/02 10:37:01;;;;;;;3.90;1.10;;;12.00;80.50;;;;;;4952100;29;20036;-81
2023/01/02 10:39:32;;;;;;;5.43;1.25;;;12.00;80.10;;;;;;4949992;29;20039;-81
2023/01/02 10:41:58;;;;;;;6.40;2.10;;;12.00;80.20;;;;;;4954802;28;20027;-81
2023/01/02 10:44:32;;;;;;;5.00;1.70;;;12.10;79.80;;;;;;4954871;29;20051;-81
2023/01/02 10:47:09;;;;;;;6.03;2.30;;;12.10;79.90;;;;;;4954993;29;20034;-81
2023/01/02 10:49:36;;;;;;;3.85;1.73;;;12.20;79.60;;;;;;4937957;29;20041;-81
2023/01/02 10:52:31;;;;;;;4.10;1.70;;;12.20;79.70;;;;;;4954365;29;20043;-81
2023/01/02 10:54:57;;;;;;;4.30;1.50;;;12.20;79.40;;;;;;4936074;29;20035;-82
2023/01/02 10:57:25;;;;;;;6.63;1.83;;;12.20;79.30;;;;;;4938900;29;20038;-81
2023/01/02 10:59:58;;;;;;;4.82;1.35;;;12.20;79.20;;;;;;4952086;29;20032;-81
2023/01/02 11:02:48;;;;;;;4.93;1.58;;;12.30;78.90;;;;;;4939831;29;20129;-82
2023/01/02 11:05:25;;;;;;;3.35;1.23;;;12.30;78.70;;;;;;4939555;29;20035;-89
2023/01/02 11:07:52;;;;;;;3.67;1.27;;;12.30;78.30;;;;;;4946456;29;20415;-83
2023/01/02 11:10:37;;;;;;;2.42;1.48;;;12.30;77.90;;;;;;4946808;29;20035;-82
2023/01/02 11:13:07;;;;;;;6.72;1.88;;;12.30;78.20;;;;;;4939000;29;20063;-81
2023/01/02 11:15:34;;;;;;;2.88;1.38;;;12.40;78.30;;;;;;4952900;29;20458;-82
2023/01/02 11:18:16;;;;;;;3.60;1.48;;;12.40;78.20;;;;;;4937289;28;20122;-82
2023/01/02 11:20:48;;;;;;;1.63;1.08;;;12.40;78.40;;;;;;4953964;28;20038;-83
2023/01/02 11:23:15;;;;;;;3.42;1.05;;;12.50;78.00;;;;;;4951617;28;20674;-84
2023/01/02 11:25:46;;;;;;;4.60;1.00;;;12.50;77.80;;;;;;4936768;29;20035;-84
2023/01/02 11:28:21;;;;;;;6.15;1.30;;;12.50;77.50;;;;;;4938865;29;20110;-85
2023/01/02 11:30:51;;;;;;;3.33;1.10;;;12.60;77.70;;;;;;4953368;29;20180;-85
2023/01/02 11:33:29;;;;;;;3.55;1.00;;;12.60;77.60;;;;;;4935276;29;20110;-80
2023/01/02 11:36:04;;;;;;;2.63;1.23;;;12.60;77.30;;;;;;4934746;29;20509;-81
2023/01/02 11:38:46;;;;;;;2.20;0.95;;;12.70;76.70;;;;;;4955795;29;20023;-81
2023/01/02 11:45:01;;;;;;;4.07;1.40;;;12.80;76.90;;;;;;4953451;29;20046;-81
2023/01/02 11:47:48;;;;;;;2.90;0.70;;;12.80;76.30;;;;;;4947277;29;20042;-81
2023/01/02 11:50:25;;;;;;;1.30;0.70;;;12.80;76.10;;;;;;4948080;29;20042;-81
2023/01/02 11:53:01;;;;;;;6.00;1.23;;;12.80;76.20;;;;;;4955984;29;20039;-80
2023/01/02 11:55:45;;;;;;;2.35;0.85;;;12.80;76.20;;;;;;4956018;29;20027;-81
2023/01/02 11:58:33;;;;;;;2.00;0.85;;;12.80;75.80;;;;;;4951557;29;20042;-81
2023/01/02 12:01:12;;;;;;;1.50;0.80;;;12.80;75.20;;;;;;4955368;29;20050;-81
2023/01/02 12:03:38;;;;;;;1.30;0.90;;;12.90;75.30;;;;;;4956163;29;20107;-81
2023/01/02 12:06:22;;;;;;;2.47;1.33;;;12.90;75.20;;;;;;4956225;29;20047;-81
2023/01/02 12:09:10;;;;;;;3.75;1.00;;;12.90;74.40;;;;;;4952974;29;20027;-81
2023/01/02 12:11:50;;;;;;;2.08;0.70;;;12.90;74.60;;;;;;4953795;29;20058;-81
2023/01/02 12:14:43;;;;;;;3.47;0.73;;;12.80;74.70;;;;;;4950201;29;20024;-81
2023/01/02 12:17:46;;;;;;;3.42;1.25;;;12.80;74.10;;;;;;4955458;29;20039;-77
2023/01/02 12:20:43;;;;;;;4.72;0.90;;;12.80;74.10;;;;;;4959312;29;20023;-76
2023/01/02 12:23:27;;;;;;;4.82;1.20;;;12.70;74.00;;;;;;4957558;29;20040;-76
2023/01/02 12:26:06;;;;;;;6.20;0.90;;;12.70;74.30;;;;;;4958525;28;20078;-75
2023/01/02 12:28:37;;;;;;;2.28;1.30;;;12.70;74.40;;;;;;4957623;29;20090;-76
2023/01/02 12:31:19;;;;;;;1.75;1.02;;;12.70;74.50;;;;;;4955211;29;20633;-77
2023/01/02 12:33:57;;;;;;;3.80;0.90;;;12.70;74.80;;;;;;4955872;29;20039;-77
2023/01/02 12:37:01;;;;;;;2.72;1.00;;;12.80;74.70;;;;;;4955261;28;20023;-78
2023/01/02 12:40:04;;;;;;;2.00;1.23;;;12.90;73.90;;;;;;4920960;29;20071;-78
2023/01/02 12:42:49;;;;;;;1.30;1.00;;;12.90;73.90;;;;;;4950643;29;20031;-83
2023/01/02 12:45:38;;;;;;;1.30;0.88;;;13.00;73.90;;;;;;4959391;29;20039;-77
2023/01/02 12:48:39;;;;;;;1.70;1.15;;;13.20;74.00;;;;;;4959671;29;20054;-78
2023/01/02 12:51:14;;;;;;;1.50;1.10;;;13.20;73.30;;;;;;4937664;29;20058;-79
2023/01/02 12:54:01;;;;;;;2.78;1.00;;;13.10;73.50;;;;;;4959448;29;20086;-78
2023/01/02 12:57:08;;;;;;;1.70;1.00;;;13.10;73.00;;;;;;4958995;29;20028;-77
2023/01/02 13:00:02;;;;;;;3.63;0.88;;;13.10;73.00;;;;;;4941987;29;20028;-78
2023/01/02 13:02:34;;;;;;;1.27;0.90;;;13.20;73.40;;;;;;4941338;29;20079;-76
2023/01/02 13:05:32;;;;;;;1.63;0.70;;;13.30;73.30;;;;;;4957460;29;20054;-75
2023/01/02 13:08:13;;;;;;;3.05;1.08;;;13.40;72.10;;;;;;4945034;28;20824;-77
2023/01/02 13:10:39;;;;;;;3.33;0.60;;;13.50;72.10;;;;;;4957226;29;20027;-76
2023/01/02 13:13:05;;;;;;;1.73;0.60;;;13.50;71.90;;;;;;4956975;29;20043;-76
2023/01/02 13:15:35;;;;;;;3.38;1.10;;;13.60;71.90;;;;;;4959845;29;20027;-76
2023/01/02 13:18:13;;;;;;;2.73;0.87;;;13.70;71.30;;;;;;4955526;29;20039;-77